2014 Snowdonia Slateman Kinetica QuarryMan

1025 results found. Perform another search | Print these results

Race Number First Name Surname Gender Gender Position Category Category Position Club Chip Time Chip Position Tweet Share
37 Mark Palmer Male 1 M50-59 1 00:09:20 1
30 Garry Hughes Male 2 M17-39 1 Tri Team Glos 00:09:34 2
1206 Team TRI-AWD LLANRUG Mixed 1 MX-RELAY 1 00:10:03 11
81 Mike Pfeiffer Male 12 M40-49 1 Hereford Triathlon 00:10:05 13
18 Suzie Richards Female 1 F17-39 1 Leeds and Bradford Triathlon C 00:10:52 38
1204 Team NEARLY HAD IT Male 38 M-RELAY 1 00:10:57 42
11 Jane Hansom Female 3 F40-49 1 00:11:23 61
1210 Team CJR Female 6 F-RELAY 1 00:12:06 116
1199 Nicky Davies Female 17 F50-59 1 Borrowdale 00:13:02 241
1156 Valerie Anne Edwards Female 44 F60-69 1 00:15:21 527
1190 Mike Dilworth Male 563 M60-69 1 00:16:11 642
67 Alex Hall Male 3 M17-39 2 City of Chester Triathlon Club 00:09:37 3
1215 Team RICHARD Mixed 2 MX-RELAY 2 00:10:09 14
109 Daryl John Male 14 M40-49 2 Five Frogs 00:10:09 16
574 Eamonn Flanagan Male 28 M50-59 2 Padarn Tri 00:10:35 30
333 Natalie Seymour Female 2 F17-39 2 Endurance Sports Coaching 00:11:02 46
15 Dorothy Liviabella Female 4 F40-49 2 00:11:53 97
1221 Team TRI NATIONS Male 108 M-RELAY 2 00:12:06 117
820 Kath Smith Female 32 F50-59 2 Carlisle Tri Club 00:14:34 420
964 Gavin Mendham Male 605 M60-69 2 Scarab Tri Club 00:16:31 688
1219 Team TRIAWD Y BUARTH! Female 94 F-RELAY 2 00:17:37 799
29 Tony Kiss Male 4 M17-39 3 00:09:39 4
1136 Steven Gregory Male 18 M40-49 3 00:10:23 20
12 Team Anna Mixed 3 MX-RELAY 3 00:10:35 31
176 Neil Johnston Male 66 M50-59 3 Merseytri 00:11:34 72
829 Anita Howe Female 5 F40-49 3 Coventry Triathletes 00:11:55 104
1105 Ruth Thom Female 7 F17-39 3 Salisbury Tri Club 00:12:10 124
1212 Team FIFTY PLUS Male 131 M-RELAY 3 00:12:24 147
655 Annie Williams Female 38 F50-59 3 00:14:55 466
1004 Ian Blakebrough Male 711 M60-69 3 Chester tri 00:17:54 819
1217 Team PENRHOSGARNEDD Female 104 F-RELAY 3 00:18:16 851
5 Ewan Brown Male 5 M17-39 4 00:09:39 5
135 Russell Quew Male 35 M40-49 4 Plymouth Harriers 00:10:53 39
250 Steve Hunt Male 76 M50-59 4 Leeds and Bradford 00:11:43 82
1203 Team MALVERN MARVELS Mixed 4 MX-RELAY 4 00:12:07 119
351 Kate Morris Female 8 F40-49 4 Racing TNT 00:12:11 125
337 Helen Talbot Female 11 F17-39 4 Nuneaton Triathlon Club 00:12:22 143
1222 Team Chuckle Brothers Male 268 M-RELAY 4 00:13:26 295
1020 Maggie Collingborn Female 41 F50-59 4 00:15:05 493
487 Nigel Burnett Male 783 M60-69 4 Team REP 00:19:05 909
45 Adam Jackson Male 6 M17-39 5 Worcester Triathlon Club 00:09:44 6
452 Mark Sander Male 39 M40-49 5 00:11:00 43
422 David Brignall Male 82 M50-59 5 Heaton Harriers 00:11:49 88
1209 Team TRI-ING TO FINISH! Mixed 5 MX-RELAY 5 00:12:10 122
343 Julie Webb Female 9 F40-49 5 Chester tri 00:12:13 131
356 Lindsay Judge Female 12 F17-39 5 00:12:28 156
1201 Team THE JOHNSON BOYS Male 391 M-RELAY 5 00:14:40 436
919 Sarah Greaves Female 42 F50-59 5 OOTri 00:15:08 495
1140 Mike Harlow Male 808 M60-69 5 Knutsford Tri 00:19:32 936
102 Stephen Watterson Male 7 M17-39 6 00:09:52 7
282 Tony Goodyear Male 46 M40-49 6 00:11:08 51
361 Kevin Sexton Male 119 M50-59 6 Rugby Tri Club 00:12:14 133
357 Helen Teasdale Female 10 F40-49 6 00:12:17 136
334 Laura Pankhurst Female 14 F17-39 6 BAD tri 00:12:35 172
1208 Team DERFEL Mixed 6 MX-RELAY 6 00:12:35 175
606 Gaynor Evans Female 59 F50-59 6 Manx Tri 00:15:56 607
1213 Team SWIFT Male 540 M-RELAY 6 00:15:58 609
1052 Alistair Bates Male 821 M60-69 6 SyTri 00:19:54 950
1 Stephen Skates Male 8 M17-39 7 00:09:53 8
169 John Hill Male 49 M40-49 7 Fibrax Alf Jones Cycles 00:11:13 54
239 Lee Benson Male 123 M50-59 7 Manchester triathlon club 00:12:19 138
340 Natasha Geere Female 13 F40-49 7 Leeds and Bradford 00:12:29 157
1207 Team RAW Mixed 7 MX-RELAY 7 00:12:49 200
832 Katy Vose Female 15 F17-39 7 00:12:49 201
879 Frances Jones Female 60 F50-59 7 SYTri Shrewsbury Triathlon 00:15:59 613
940 Nick Weyman Male 9 M17-39 8 00:09:58 9
1120 Marc Laithwaite Male 53 M40-49 8 00:11:20 58
178 Trevor Perkins Male 133 M50-59 8 North Devon Triathletes 00:12:24 149
349 Claire Hebblethwaite Female 16 F17-39 8 00:12:57 226
1197 Melissa Dowell Female 18 F40-49 8 Born2Tri 00:13:06 248
1202 Team POLARBEAR Mixed 8 MX-RELAY 8 00:13:13 269
1099 Susan Standford Female 64 F50-59 8 north devon tri 00:16:04 625
101 Dave Lemon Male 10 M17-39 9 00:10:01 10
52 Simon Darlington Male 60 M40-49 9 00:11:27 66
155 Martin Kerry Male 140 M50-59 9 Triclan 00:12:29 158
347 Charlotte Jenkinson Female 19 F17-39 9 Sheffield Triathlon Club 00:13:08 252
883 Kathryn Watson Female 20 F40-49 9 00:13:30 301
1220 Team CREAM TEA Mixed 9 MX-RELAY 9 00:13:31 303
1046 Stell Farrar Female 65 F50-59 9 00:16:04 626
47 Ian Roberts Male 11 M17-39 10 Champion systems 00:10:03 12
331 Geran Hughes Male 64 M40-49 10 Carneddau Triathlon Club 00:11:31 70
491 Mark Liptrot Male 174 M50-59 10 00:12:46 194
16 Charlotte Jelleyman Female 21 F17-39 10 Leicester Triathlon Club 00:13:31 304
1216 Team ANTIPODEAN RACING Mixed 10 MX-RELAY 10 00:13:32 306
348 Nicola Goodwin Female 23 F40-49 10 Hereford Triathlon Club 00:13:37 318
605 Joanne Edwards Female 73 F50-59 10 Knutsford Tri Club 00:16:28 684
40 Richard Lomas Male 13 M17-39 11 BRAT 00:10:09 15
709 Andrew Naylor Male 69 M40-49 11 00:11:38 75
304 Tony Holt Male 181 M50-59 11 Greater Manchester Fire Servic 00:12:50 203
611 Lisa Hurley Female 22 F17-39 11 Malvern Triathlon Club 00:13:36 313
1154 Karen Driver Female 24 F40-49 11 00:13:46 329
1218 Team CLUB TROPICANA Mixed 11 MX-RELAY 11 00:16:33 694
1039 Sue Ellis Female 79 F50-59 11 City of Chester Tri 00:16:53 726
2 Oliver Simon Male 15 M17-39 12 TRI EXERCISE/FIVE FROGS TRI CL 00:10:18 17
220 Jonathan Nicholson Male 71 M40-49 12 00:11:39 77
161 Francis Mulhern Male 182 M50-59 12 00:12:51 204
332 Sarah Rose Female 25 F17-39 12 Manchester triathlon club 00:13:55 346
339 Claire Sutcliffe Female 26 F40-49 12 Chester Triathlon Club 00:14:01 356
822 Karen Mcgibbon Female 87 F50-59 12 00:17:12 760
1214 Team TRITASTIC TRIO Mixed 12 MX-RELAY 12 00:17:55 822